Time;durP1;ratioP1;P1;durP2;ratioP2;P2;SDS_P1;SDS_P2;PMS_P1;PMS_P2;Temp;Humidity;BMP_temperature;BMP_pressure;BME280_temperature;BME280_humidity;BME280_pressure;Samples;Min_cycle;Max_cycle;Signal;HPM_P1;HPM_P2
2023/05/18 00:01:29;;;;;;;4.65;2.00;;;9.00;65.00;;;;;;5074933;28;20035;-69
2023/05/18 00:03:55;;;;;;;3.67;1.60;;;9.00;65.00;;;;;;5069468;28;20483;-67
2023/05/18 00:06:24;;;;;;;4.47;2.10;;;9.00;65.10;;;;;;5069053;28;20024;-68
2023/05/18 00:08:49;;;;;;;4.05;1.88;;;8.90;65.10;;;;;;5069833;28;20021;-67
2023/05/18 00:11:15;;;;;;;7.45;2.33;;;9.00;65.20;;;;;;5064417;28;20032;-68
2023/05/18 00:13:41;;;;;;;6.03;2.08;;;8.90;65.30;;;;;;5069783;28;20051;-68
2023/05/18 00:16:07;;;;;;;4.63;1.88;;;8.90;65.40;;;;;;5077040;28;20487;-69
2023/05/18 00:18:32;;;;;;;5.82;2.30;;;8.80;65.40;;;;;;5069350;28;20032;-68
2023/05/18 00:20:59;;;;;;;4.53;2.00;;;8.80;65.80;;;;;;5078164;28;20026;-68
2023/05/18 00:23:31;;;;;;;5.72;2.17;;;8.80;65.80;;;;;;5065458;28;20044;-68
2023/05/18 00:25:59;;;;;;;4.25;1.90;;;8.80;65.90;;;;;;5071770;28;20112;-67
2023/05/18 00:28:25;;;;;;;3.28;2.03;;;8.70;65.90;;;;;;5069825;28;20027;-67
2023/05/18 00:30:51;;;;;;;4.35;2.10;;;8.70;66.00;;;;;;5073332;28;20095;-67
2023/05/18 00:33:17;;;;;;;4.40;2.05;;;8.80;66.00;;;;;;5073386;28;20104;-68
2023/05/18 00:35:43;;;;;;;6.70;2.40;;;8.70;66.00;;;;;;5074125;28;20111;-66
2023/05/18 00:38:08;;;;;;;4.82;2.10;;;8.70;66.10;;;;;;5071865;28;20044;-67
2023/05/18 00:40:34;;;;;;;4.45;2.13;;;8.70;66.20;;;;;;5073012;28;20058;-67
2023/05/18 00:43:00;;;;;;;5.15;2.20;;;8.70;66.30;;;;;;5072907;28;20078;-67
2023/05/18 00:45:25;;;;;;;5.10;2.40;;;8.70;66.20;;;;;;5072239;28;20059;-66
2023/05/18 00:47:51;;;;;;;4.40;2.08;;;8.80;66.30;;;;;;5071882;28;20021;-66
2023/05/18 00:50:17;;;;;;;3.22;2.10;;;8.70;66.20;;;;;;5071931;28;20112;-66
2023/05/18 00:52:43;;;;;;;6.30;2.38;;;8.70;66.20;;;;;;5071949;28;20071;-67
2023/05/18 00:55:11;;;;;;;4.85;2.38;;;8.70;66.10;;;;;;5072085;28;20024;-68
2023/05/18 00:57:37;;;;;;;6.15;2.45;;;8.60;66.20;;;;;;5072849;28;20020;-67
2023/05/18 01:00:05;;;;;;;4.70;2.45;;;8.70;66.30;;;;;;5074083;28;20497;-68
2023/05/18 01:02:30;;;;;;;6.85;2.90;;;8.60;66.30;;;;;;5071959;28;20059;-69
2023/05/18 01:04:56;;;;;;;4.35;2.15;;;8.60;66.50;;;;;;5071792;28;20044;-67
2023/05/18 01:07:25;;;;;;;5.25;2.13;;;8.60;67.20;;;;;;5070547;28;20033;-67
2023/05/18 01:09:52;;;;;;;4.68;2.20;;;8.60;66.60;;;;;;5071470;28;20071;-70
2023/05/18 01:12:28;;;;;;;5.50;2.28;;;8.50;66.60;;;;;;5070325;28;20032;-67
2023/05/18 01:15:07;;;;;;;4.72;2.20;;;8.50;67.50;;;;;;5068711;28;20032;-68
2023/05/18 01:18:09;;;;;;;5.38;2.33;;;8.50;66.90;;;;;;5072387;28;20035;-69
2023/05/18 01:20:59;;;;;;;4.80;2.10;;;8.50;67.00;;;;;;5069383;28;20488;-67
2023/05/18 01:24:02;;;;;;;6.80;2.53;;;8.50;67.00;;;;;;5069886;28;20024;-66
2023/05/18 01:26:30;;;;;;;4.18;2.20;;;8.40;67.10;;;;;;5071319;28;20036;-68
2023/05/18 01:28:59;;;;;;;6.35;2.50;;;8.40;67.10;;;;;;5071205;28;20021;-68
2023/05/18 01:31:26;;;;;;;8.13;3.25;;;8.40;67.20;;;;;;5071803;28;20040;-66
2023/05/18 01:33:51;;;;;;;5.80;2.63;;;8.40;67.10;;;;;;5070908;28;20024;-69
2023/05/18 01:36:17;;;;;;;6.22;2.53;;;8.40;67.20;;;;;;5071522;28;20387;-67
2023/05/18 01:38:44;;;;;;;4.78;2.30;;;8.40;67.20;;;;;;5070483;28;20021;-67
2023/05/18 01:41:15;;;;;;;6.70;2.72;;;8.40;67.20;;;;;;5071480;28;20021;-69
2023/05/18 01:43:50;;;;;;;6.03;2.33;;;8.40;67.30;;;;;;5080423;28;20510;-67
2023/05/18 01:46:27;;;;;;;5.97;2.58;;;8.40;67.30;;;;;;5071960;28;20395;-69
2023/05/18 01:49:06;;;;;;;5.20;2.35;;;8.40;67.30;;;;;;5070201;28;20024;-67
2023/05/18 01:51:35;;;;;;;5.15;2.33;;;8.40;67.40;;;;;;5072973;28;20025;-68
2023/05/18 01:54:06;;;;;;;4.43;2.40;;;8.30;67.40;;;;;;5072389;28;20649;-69
2023/05/18 01:56:32;;;;;;;5.00;2.15;;;8.30;67.40;;;;;;5072805;28;20032;-68
2023/05/18 01:58:59;;;;;;;4.30;2.20;;;8.30;67.50;;;;;;5075613;28;20013;-68
2023/05/18 02:01:25;;;;;;;4.47;2.50;;;8.30;67.50;;;;;;5067659;28;20016;-68
2023/05/18 02:03:50;;;;;;;5.18;2.38;;;8.20;67.50;;;;;;5070273;28;20025;-68
2023/05/18 02:06:16;;;;;;;4.97;2.63;;;8.20;67.60;;;;;;5071105;28;20028;-66
2023/05/18 02:08:42;;;;;;;4.47;2.20;;;8.30;67.70;;;;;;5071050;28;20119;-68
2023/05/18 02:11:08;;;;;;;3.95;2.22;;;8.20;67.70;;;;;;5069970;28;20476;-68
2023/05/18 02:13:33;;;;;;;4.22;2.15;;;8.20;67.70;;;;;;5070866;28;20525;-68
2023/05/18 02:15:59;;;;;;;4.60;2.50;;;8.20;67.70;;;;;;5076609;28;20363;-68
2023/05/18 02:18:28;;;;;;;4.38;2.45;;;8.20;67.80;;;;;;5074863;28;20032;-68
2023/05/18 02:20:59;;;;;;;5.88;2.83;;;8.20;67.90;;;;;;5070634;28;20189;-67
2023/05/18 02:23:26;;;;;;;5.40;2.72;;;8.10;68.30;;;;;;5072377;28;20024;-66
2023/05/18 02:25:54;;;;;;;6.10;2.47;;;8.20;68.90;;;;;;5071390;28;20391;-67
2023/05/18 02:28:20;;;;;;;4.25;2.40;;;8.10;68.20;;;;;;5074580;28;20478;-67
2023/05/18 02:30:46;;;;;;;5.45;2.47;;;8.10;68.20;;;;;;5075399;28;20028;-68
2023/05/18 02:33:11;;;;;;;6.43;2.35;;;8.10;68.30;;;;;;5077538;28;20028;-69
2023/05/18 02:35:37;;;;;;;4.43;2.35;;;8.10;68.40;;;;;;5072525;28;20035;-68
2023/05/18 02:38:03;;;;;;;4.25;2.70;;;8.00;68.40;;;;;;5070052;28;20052;-69
2023/05/18 02:40:28;;;;;;;4.00;2.33;;;8.00;68.40;;;;;;5070553;28;20032;-68
2023/05/18 02:42:54;;;;;;;7.00;2.78;;;8.00;68.40;;;;;;5078742;28;20020;-68
2023/05/18 02:45:20;;;;;;;7.57;2.75;;;8.00;68.50;;;;;;5071429;28;20036;-67
2023/05/18 02:47:46;;;;;;;7.35;2.80;;;8.00;68.70;;;;;;5076237;28;20095;-68
2023/05/18 02:50:11;;;;;;;7.90;2.90;;;8.00;68.80;;;;;;5068838;28;20528;-68
2023/05/18 02:52:38;;;;;;;6.57;2.58;;;7.90;69.00;;;;;;5071451;28;20032;-68
2023/05/18 02:55:04;;;;;;;5.43;2.50;;;8.00;69.00;;;;;;5070292;28;20466;-69
2023/05/18 02:57:31;;;;;;;5.40;2.80;;;8.00;68.90;;;;;;5070435;28;20443;-69
2023/05/18 02:59:57;;;;;;;8.07;2.92;;;8.00;68.90;;;;;;5070033;28;20021;-67
2023/05/18 03:02:23;;;;;;;6.20;2.60;;;7.90;68.90;;;;;;5072418;28;20077;-67
2023/05/18 03:04:53;;;;;;;5.05;2.42;;;7.90;68.90;;;;;;5069952;28;20133;-68
2023/05/18 03:07:22;;;;;;;5.53;2.83;;;7.90;69.00;;;;;;5070688;28;20039;-69
2023/05/18 03:09:47;;;;;;;5.10;2.60;;;7.90;69.00;;;;;;5069835;28;20111;-67
2023/05/18 03:12:13;;;;;;;5.45;2.90;;;7.90;69.10;;;;;;5070777;28;20107;-67
2023/05/18 03:14:38;;;;;;;4.95;2.67;;;7.90;69.30;;;;;;5074965;28;20033;-68
2023/05/18 03:17:04;;;;;;;6.53;2.60;;;7.90;69.30;;;;;;5070120;28;20029;-68
2023/05/18 03:19:31;;;;;;;5.15;2.53;;;7.90;69.40;;;;;;5070364;28;20112;-66
2023/05/18 03:21:57;;;;;;;6.13;2.63;;;7.90;69.30;;;;;;5066768;28;20035;-68
2023/05/18 03:24:25;;;;;;;4.30;2.28;;;8.00;69.30;;;;;;5071956;28;20025;-67
2023/05/18 03:26:53;;;;;;;5.75;2.50;;;7.90;69.30;;;;;;5068999;28;20031;-67
2023/05/18 03:29:19;;;;;;;5.30;2.33;;;7.90;69.20;;;;;;5071095;28;20056;-66
2023/05/18 03:31:44;;;;;;;4.55;2.40;;;7.90;69.30;;;;;;5069694;28;20036;-66
2023/05/18 03:34:10;;;;;;;5.28;2.47;;;7.90;69.20;;;;;;5069980;28;20039;-68
2023/05/18 03:36:37;;;;;;;6.40;2.40;;;7.90;69.30;;;;;;5068436;28;20024;-67
2023/05/18 03:39:04;;;;;;;5.13;2.63;;;7.80;69.30;;;;;;5069448;28;20049;-66
2023/05/18 03:41:30;;;;;;;4.35;2.72;;;7.80;69.30;;;;;;5069543;28;20023;-67
2023/05/18 03:43:56;;;;;;;4.57;2.50;;;7.80;69.40;;;;;;5067965;28;20111;-68
2023/05/18 03:46:22;;;;;;;5.70;2.97;;;7.70;69.50;;;;;;5069580;28;20395;-69
2023/05/18 03:48:47;;;;;;;8.45;3.15;;;7.70;69.70;;;;;;5070856;28;20078;-68
2023/05/18 03:51:13;;;;;;;4.80;3.00;;;7.60;69.80;;;;;;5069605;28;20684;-67
2023/05/18 03:53:39;;;;;;;5.47;2.92;;;7.60;69.90;;;;;;5068185;28;20537;-67
2023/05/18 03:56:05;;;;;;;7.90;3.22;;;7.60;70.00;;;;;;5064769;28;20025;-68
2023/05/18 03:58:31;;;;;;;7.85;2.72;;;7.60;70.10;;;;;;5062621;28;20027;-67
2023/05/18 04:00:56;;;;;;;8.20;3.10;;;7.60;70.10;;;;;;5068144;28;20036;-67
2023/05/18 04:03:23;;;;;;;4.32;2.60;;;7.70;70.00;;;;;;5076621;28;20132;-68
2023/05/18 04:05:50;;;;;;;5.80;2.63;;;7.70;70.00;;;;;;5069558;28;20023;-66
2023/05/18 04:08:16;;;;;;;4.50;2.50;;;7.70;69.90;;;;;;5072389;28;20082;-67
2023/05/18 04:10:42;;;;;;;7.25;3.13;;;7.80;69.80;;;;;;5069371;28;20028;-67
2023/05/18 04:13:08;;;;;;;11.98;3.20;;;7.80;70.00;;;;;;5069713;28;20099;-66
2023/05/18 04:15:33;;;;;;;5.03;2.50;;;7.80;70.40;;;;;;5072205;28;20844;-66
2023/05/18 04:18:00;;;;;;;5.50;2.80;;;7.90;70.20;;;;;;5069031;28;20028;-68
2023/05/18 04:20:27;;;;;;;4.80;2.40;;;8.00;70.00;;;;;;5080483;28;20501;-68
2023/05/18 04:22:54;;;;;;;5.60;2.65;;;8.10;69.80;;;;;;5071750;28;20050;-68
2023/05/18 04:25:19;;;;;;;5.18;2.70;;;8.20;69.60;;;;;;5073374;28;20098;-68
2023/05/18 04:27:45;;;;;;;7.97;2.90;;;8.10;69.60;;;;;;5068899;28;20083;-68
2023/05/18 04:30:11;;;;;;;5.88;3.00;;;8.20;69.40;;;;;;5079476;28;20118;-68
2023/05/18 04:32:41;;;;;;;6.93;2.90;;;8.20;69.40;;;;;;5069802;28;20039;-66
2023/05/18 04:35:07;;;;;;;5.50;2.40;;;8.20;69.50;;;;;;5075906;28;20032;-67
2023/05/18 04:37:33;;;;;;;5.78;2.50;;;8.30;69.40;;;;;;5069452;28;20025;-67
2023/05/18 04:40:01;;;;;;;6.93;2.38;;;8.30;69.20;;;;;;5069459;28;20039;-67
2023/05/18 04:42:29;;;;;;;5.43;2.33;;;8.30;69.10;;;;;;5069221;28;20029;-67
2023/05/18 04:44:55;;;;;;;6.32;2.50;;;8.40;69.10;;;;;;5069643;28;20048;-67
2023/05/18 04:47:23;;;;;;;5.80;2.40;;;8.60;68.90;;;;;;5068881;28;20491;-67
2023/05/18 04:49:51;;;;;;;5.53;2.47;;;8.60;68.50;;;;;;5070379;28;20128;-67
2023/05/18 04:52:18;;;;;;;7.38;2.78;;;8.70;68.20;;;;;;5068590;28;20059;-67
2023/05/18 04:54:44;;;;;;;7.85;2.40;;;8.70;68.20;;;;;;5076789;28;20405;-67
2023/05/18 04:57:09;;;;;;;6.80;2.60;;;8.80;68.00;;;;;;5072576;28;20031;-67
2023/05/18 04:59:35;;;;;;;8.73;2.70;;;8.80;68.00;;;;;;5075994;28;20028;-68
2023/05/18 05:02:02;;;;;;;5.28;2.60;;;8.80;68.10;;;;;;5065224;28;20020;-67
2023/05/18 05:04:28;;;;;;;5.97;2.55;;;8.90;68.10;;;;;;5077421;28;20629;-67
2023/05/18 05:06:53;;;;;;;5.30;2.40;;;9.20;67.90;;;;;;5069056;28;20035;-68
2023/05/18 05:09:19;;;;;;;4.20;2.05;;;9.70;66.90;;;;;;5073245;28;20505;-67
2023/05/18 05:11:45;;;;;;;4.05;2.10;;;10.30;65.50;;;;;;5070198;28;20077;-67
2023/05/18 05:14:10;;;;;;;5.28;2.38;;;11.10;63.70;;;;;;5072294;28;20567;-67
2023/05/18 05:16:36;;;;;;;6.25;2.67;;;11.70;61.70;;;;;;5072463;28;20025;-68
2023/05/18 05:19:02;;;;;;;3.80;2.15;;;12.10;60.10;;;;;;5075157;28;20013;-68
2023/05/18 05:21:27;;;;;;;4.47;2.10;;;12.20;59.50;;;;;;5072563;28;20067;-67
2023/05/18 05:23:53;;;;;;;5.30;2.08;;;12.50;59.00;;;;;;5075358;28;20111;-68
2023/05/18 05:26:20;;;;;;;6.38;2.03;;;12.60;58.60;;;;;;5071952;28;20074;-69
2023/05/18 05:28:46;;;;;;;3.55;1.98;;;12.40;58.40;;;;;;5072133;28;20028;-68
2023/05/18 05:31:11;;;;;;;6.90;2.50;;;12.20;58.70;;;;;;5080015;28;20035;-68
2023/05/18 05:33:37;;;;;;;5.57;2.13;;;12.00;58.50;;;;;;5087985;28;20031;-67
2023/05/18 05:36:04;;;;;;;6.18;2.33;;;12.30;58.70;;;;;;5082174;28;20028;-68
2023/05/18 05:38:30;;;;;;;5.85;2.15;;;12.60;58.20;;;;;;5071835;28;20055;-66
2023/05/18 05:40:56;;;;;;;3.90;1.73;;;13.00;57.20;;;;;;5072203;28;20491;-67
2023/05/18 05:43:22;;;;;;;7.72;2.17;;;13.50;56.60;;;;;;5073009;28;20108;-67
2023/05/18 05:45:47;;;;;;;8.48;2.15;;;13.90;55.70;;;;;;5073091;28;20025;-68
2023/05/18 05:48:13;;;;;;;6.13;2.20;;;13.90;54.80;;;;;;5071792;28;20050;-68
2023/05/18 05:50:38;;;;;;;8.05;2.22;;;13.40;54.90;;;;;;5070823;28;20025;-67
2023/05/18 05:53:04;;;;;;;6.55;2.25;;;12.80;55.00;;;;;;5080092;28;20028;-67
2023/05/18 05:55:29;;;;;;;6.50;2.03;;;12.20;55.90;;;;;;5087755;28;20034;-68
2023/05/18 05:57:55;;;;;;;6.97;2.30;;;11.90;57.20;;;;;;5073778;28;20016;-66
2023/05/18 06:00:22;;;;;;;5.43;1.98;;;11.70;57.90;;;;;;5076713;28;20086;-66
2023/05/18 06:02:48;;;;;;;6.35;1.80;;;11.50;58.30;;;;;;5072182;28;20034;-69
2023/05/18 06:05:13;;;;;;;4.47;2.10;;;11.40;58.80;;;;;;5071900;28;20032;-68
2023/05/18 06:07:39;;;;;;;6.78;2.05;;;11.40;58.90;;;;;;5072143;28;20028;-68
2023/05/18 06:10:06;;;;;;;6.28;2.30;;;11.30;59.10;;;;;;5068219;28;20044;-67
2023/05/18 06:12:31;;;;;;;7.25;2.00;;;11.00;60.00;;;;;;5071697;28;20029;-68
2023/05/18 06:14:57;;;;;;;5.30;2.00;;;11.00;59.50;;;;;;5072368;28;20040;-67
2023/05/18 06:17:26;;;;;;;6.30;2.13;;;10.90;59.80;;;;;;5071339;28;20036;-67
2023/05/18 06:19:53;;;;;;;3.80;1.80;;;11.10;59.40;;;;;;5080237;28;20028;-69
2023/05/18 06:22:19;;;;;;;4.03;1.65;;;11.30;59.20;;;;;;5070912;28;20033;-68
2023/05/18 06:24:45;;;;;;;7.55;2.30;;;11.50;59.00;;;;;;5070822;28;20028;-69
2023/05/18 06:27:11;;;;;;;6.22;2.20;;;11.50;58.70;;;;;;5072438;28;20024;-70
2023/05/18 06:29:36;;;;;;;5.43;1.70;;;11.20;58.80;;;;;;5070749;28;20481;-70
2023/05/18 06:32:02;;;;;;;5.03;1.80;;;11.20;59.30;;;;;;5070553;28;20021;-68
2023/05/18 06:34:28;;;;;;;6.93;2.00;;;11.40;59.30;;;;;;5074918;28;20016;-67
2023/05/18 06:36:53;;;;;;;5.78;1.92;;;11.60;59.10;;;;;;5078747;28;20029;-68
2023/05/18 06:39:19;;;;;;;6.80;2.22;;;11.80;58.90;;;;;;5071949;28;20036;-67
2023/05/18 06:41:46;;;;;;;5.50;2.25;;;12.00;58.60;;;;;;5070944;28;20068;-67
2023/05/18 06:44:11;;;;;;;4.22;1.80;;;12.10;58.20;;;;;;5071845;28;20066;-68
2023/05/18 06:46:37;;;;;;;4.80;2.00;;;12.40;58.40;;;;;;5070955;28;20021;-70
2023/05/18 06:49:03;;;;;;;6.72;2.33;;;12.60;57.40;;;;;;5070758;28;20494;-70
2023/05/18 06:51:30;;;;;;;6.10;2.25;;;12.60;56.70;;;;;;5080039;28;20071;-68
2023/05/18 06:53:55;;;;;;;3.50;1.63;;;12.60;56.90;;;;;;5070663;28;20116;-70
2023/05/18 06:56:21;;;;;;;8.00;2.00;;;12.70;57.10;;;;;;5068444;28;20466;-68
2023/05/18 06:58:47;;;;;;;5.97;2.03;;;13.00;57.00;;;;;;5069559;28;20020;-67
2023/05/18 07:01:13;;;;;;;5.65;2.10;;;13.10;56.00;;;;;;5078074;28;20026;-67
2023/05/18 07:03:38;;;;;;;8.63;2.47;;;13.00;55.50;;;;;;5072890;28;20020;-67
2023/05/18 07:06:05;;;;;;;6.20;2.00;;;12.80;54.90;;;;;;5074701;28;20082;-67
2023/05/18 07:08:31;;;;;;;5.72;1.77;;;12.60;55.40;;;;;;5079048;28;20426;-67
2023/05/18 07:10:57;;;;;;;7.70;2.30;;;12.50;55.90;;;;;;5074345;28;20029;-68
2023/05/18 07:13:24;;;;;;;5.63;2.13;;;12.40;56.20;;;;;;5076517;28;20105;-67
2023/05/18 07:15:50;;;;;;;6.22;2.17;;;12.40;55.90;;;;;;5070786;28;20085;-69
2023/05/18 07:18:16;;;;;;;5.03;2.00;;;12.40;56.20;;;;;;5075651;28;20025;-68
2023/05/18 07:20:41;;;;;;;8.35;2.47;;;12.40;55.90;;;;;;5065654;28;20241;-68
2023/05/18 07:23:07;;;;;;;5.65;2.20;;;12.50;56.20;;;;;;5071755;28;20028;-67
2023/05/18 07:25:32;;;;;;;7.45;2.45;;;12.70;56.20;;;;;;5069211;28;20024;-69
2023/05/18 07:27:58;;;;;;;6.32;2.20;;;12.60;55.70;;;;;;5070247;28;20036;-67
2023/05/18 07:30:25;;;;;;;9.23;2.72;;;12.60;55.80;;;;;;5086404;28;20020;-68
2023/05/18 07:32:51;;;;;;;7.90;2.25;;;12.50;55.60;;;;;;5081518;28;20112;-69
2023/05/18 07:35:19;;;;;;;6.55;2.00;;;12.40;56.10;;;;;;5068021;28;20388;-68
2023/05/18 07:37:44;;;;;;;6.05;2.00;;;12.60;56.10;;;;;;5073929;28;20025;-68
2023/05/18 07:40:11;;;;;;;5.35;2.00;;;12.90;56.10;;;;;;5071463;28;20024;-68
2023/05/18 07:42:38;;;;;;;6.50;2.20;;;13.20;55.70;;;;;;5070170;28;20021;-68
2023/05/18 07:45:05;;;;;;;5.20;2.05;;;13.10;54.60;;;;;;5069739;28;20024;-67
2023/05/18 07:47:30;;;;;;;7.43;2.40;;;13.20;54.90;;;;;;5069727;28;20038;-68
2023/05/18 07:49:56;;;;;;;5.90;2.10;;;13.30;54.50;;;;;;5086764;28;20024;-67
2023/05/18 07:52:21;;;;;;;8.35;2.40;;;13.20;54.30;;;;;;5081708;28;20032;-68
2023/05/18 07:54:47;;;;;;;6.88;1.92;;;13.30;54.40;;;;;;5072145;28;20028;-67
2023/05/18 07:57:13;;;;;;;7.90;2.53;;;13.30;54.40;;;;;;5072692;28;20024;-67
2023/05/18 07:59:38;;;;;;;6.72;2.00;;;13.40;53.80;;;;;;5069371;28;20579;-68
2023/05/18 08:02:04;;;;;;;5.35;2.00;;;13.40;54.00;;;;;;5068303;28;20038;-68
2023/05/18 08:04:29;;;;;;;8.50;2.55;;;13.60;54.20;;;;;;5068986;28;20024;-66
2023/05/18 08:06:59;;;;;;;5.97;2.15;;;13.80;53.60;;;;;;5070986;28;20793;-68
2023/05/18 08:09:25;;;;;;;7.55;2.25;;;13.90;53.30;;;;;;5070584;28;20028;-66
2023/05/18 08:11:51;;;;;;;7.38;2.17;;;14.00;53.10;;;;;;5070065;28;20055;-66
2023/05/18 08:14:16;;;;;;;5.13;2.25;;;14.10;52.90;;;;;;5069456;28;20056;-66
2023/05/18 08:16:42;;;;;;;7.03;2.08;;;14.00;52.90;;;;;;5068883;28;20024;-69
2023/05/18 08:19:08;;;;;;;5.80;2.28;;;14.00;53.20;;;;;;5069925;28;20021;-67
2023/05/18 08:21:33;;;;;;;6.25;2.40;;;14.00;53.20;;;;;;5066107;28;20035;-66
2023/05/18 08:23:59;;;;;;;6.65;2.28;;;13.80;52.80;;;;;;5068432;28;20044;-66
2023/05/18 08:26:25;;;;;;;4.88;2.00;;;13.60;53.40;;;;;;5066548;28;20028;-66
2023/05/18 08:28:51;;;;;;;5.53;1.92;;;13.60;53.80;;;;;;5065573;28;20032;-66
2023/05/18 08:31:17;;;;;;;6.25;2.25;;;13.80;53.90;;;;;;5063944;28;20020;-67
2023/05/18 08:33:42;;;;;;;8.38;2.10;;;13.90;53.40;;;;;;5068700;28;20099;-70
2023/05/18 08:36:08;;;;;;;6.38;2.20;;;14.00;53.20;;;;;;5069473;28;20026;-69
2023/05/18 08:38:34;;;;;;;5.22;1.98;;;14.10;52.90;;;;;;5066202;28;20025;-68
2023/05/18 08:41:31;;;;;;;6.43;2.05;;;14.20;52.80;;;;;;5067499;28;20025;-66
2023/05/18 08:44:05;;;;;;;7.53;2.00;;;14.30;52.60;;;;;;5076023;28;20435;-70
2023/05/18 08:46:50;;;;;;;5.20;2.10;;;14.20;51.80;;;;;;5073560;28;20530;-69
2023/05/18 08:49:20;;;;;;;8.00;2.50;;;14.10;52.10;;;;;;5071183;28;20020;-67
2023/05/18 08:51:53;;;;;;;7.03;2.40;;;14.10;51.70;;;;;;5085011;28;20020;-66
2023/05/18 08:54:22;;;;;;;6.07;2.35;;;14.00;52.20;;;;;;5076826;28;20035;-66
2023/05/18 08:56:48;;;;;;;7.20;2.00;;;14.00;52.50;;;;;;5075913;28;21419;-67
2023/05/18 08:59:22;;;;;;;4.55;2.10;;;14.10;52.80;;;;;;5080417;28;20090;-69
2023/05/18 09:01:49;;;;;;;6.55;2.50;;;14.30;52.10;;;;;;5072573;28;20028;-68
2023/05/18 09:04:15;;;;;;;6.20;2.30;;;14.30;51.60;;;;;;5077597;28;20028;-66
2023/05/18 09:06:41;;;;;;;7.30;2.67;;;14.10;51.40;;;;;;5072318;28;20012;-67
2023/05/18 09:09:08;;;;;;;7.43;2.50;;;14.00;51.70;;;;;;5070824;28;20494;-67
2023/05/18 09:11:34;;;;;;;5.25;2.10;;;13.80;51.70;;;;;;5068372;28;20028;-69
2023/05/18 09:14:00;;;;;;;4.50;1.90;;;14.00;52.10;;;;;;5072886;28;20025;-68
2023/05/18 09:16:26;;;;;;;3.85;1.90;;;14.40;51.90;;;;;;5068694;28;20035;-68
2023/05/18 09:18:52;;;;;;;4.95;2.00;;;14.80;51.50;;;;;;5063257;28;20052;-70
2023/05/18 09:21:18;;;;;;;6.35;2.60;;;14.90;50.80;;;;;;5070039;28;20214;-69
2023/05/18 09:23:43;;;;;;;7.53;2.20;;;14.80;50.10;;;;;;5070464;28;20176;-70
2023/05/18 09:26:10;;;;;;;6.60;2.50;;;14.70;50.60;;;;;;5069843;28;20447;-70
2023/05/18 09:28:41;;;;;;;5.57;2.30;;;14.70;50.70;;;;;;5071016;28;20031;-69
2023/05/18 09:31:11;;;;;;;6.13;2.37;;;14.40;50.00;;;;;;5074680;28;20028;-69
2023/05/18 09:33:38;;;;;;;4.40;2.10;;;14.60;50.70;;;;;;5070130;28;20275;-67
2023/05/18 09:36:05;;;;;;;8.90;2.92;;;14.70;50.40;;;;;;5071320;28;20067;-69
2023/05/18 09:38:36;;;;;;;7.03;2.33;;;14.40;49.40;;;;;;5071649;28;20032;-67
2023/05/18 09:41:02;;;;;;;6.28;2.22;;;14.20;50.40;;;;;;5068065;28;20772;-67
2023/05/18 09:43:28;;;;;;;6.40;2.55;;;14.30;50.40;;;;;;5069330;28;20016;-67
2023/05/18 09:45:54;;;;;;;8.50;3.10;;;14.30;50.50;;;;;;5072081;28;20035;-69
2023/05/18 09:48:20;;;;;;;7.88;2.60;;;14.20;50.10;;;;;;5069261;28;20058;-68
2023/05/18 09:50:46;;;;;;;6.35;2.40;;;13.90;50.90;;;;;;5071800;28;20024;-67
2023/05/18 09:53:12;;;;;;;4.45;2.00;;;14.00;51.20;;;;;;5077474;28;20406;-68
2023/05/18 09:55:47;;;;;;;6.97;2.63;;;14.30;51.30;;;;;;5072279;28;20032;-67
2023/05/18 09:58:13;;;;;;;5.68;2.33;;;14.30;50.60;;;;;;5065658;28;20981;-67
2023/05/18 10:00:48;;;;;;;6.07;2.17;;;14.20;50.20;;;;;;5065553;28;20028;-66
2023/05/18 10:03:22;;;;;;;5.30;2.20;;;14.10;50.70;;;;;;5069914;28;20021;-66
2023/05/18 10:05:48;;;;;;;6.75;2.15;;;14.30;51.30;;;;;;5073633;28;20040;-67
2023/05/18 10:08:14;;;;;;;7.30;2.78;;;14.40;51.10;;;;;;5074012;28;20021;-67
2023/05/18 10:10:43;;;;;;;6.93;2.75;;;14.40;50.10;;;;;;5068214;28;20028;-66
2023/05/18 10:13:19;;;;;;;5.88;2.22;;;14.00;50.30;;;;;;5083586;28;20062;-66
2023/05/18 10:15:54;;;;;;;8.05;2.75;;;14.00;51.20;;;;;;5076336;28;20032;-67
2023/05/18 10:18:22;;;;;;;5.75;2.10;;;14.20;51.30;;;;;;5069858;28;20020;-67
2023/05/18 10:20:49;;;;;;;6.10;2.47;;;14.40;51.20;;;;;;5081470;28;20028;-67
2023/05/18 10:23:19;;;;;;;6.78;2.50;;;14.40;50.70;;;;;;5071989;28;20020;-67
2023/05/18 10:25:47;;;;;;;6.38;2.40;;;14.20;50.90;;;;;;5085767;28;20673;-68
2023/05/18 10:28:24;;;;;;;6.15;2.25;;;14.30;51.00;;;;;;5078894;28;20036;-67
2023/05/18 10:30:52;;;;;;;7.47;2.60;;;14.50;50.80;;;;;;5075591;28;20028;-69
2023/05/18 10:33:19;;;;;;;4.20;2.10;;;14.50;50.50;;;;;;5070176;28;20081;-69
2023/05/18 10:35:48;;;;;;;8.50;2.53;;;14.60;50.40;;;;;;5074969;28;20035;-67
2023/05/18 10:38:22;;;;;;;6.47;2.42;;;14.60;50.10;;;;;;5080114;28;20020;-67
2023/05/18 10:40:49;;;;;;;4.75;2.10;;;14.70;49.90;;;;;;5068251;28;20069;-67
2023/05/18 10:43:21;;;;;;;5.25;2.17;;;15.00;49.70;;;;;;5070533;28;20021;-68
2023/05/18 10:45:51;;;;;;;5.18;2.30;;;15.10;49.40;;;;;;5068314;28;20398;-69
2023/05/18 10:48:19;;;;;;;5.97;2.38;;;15.00;48.90;;;;;;5070145;28;20494;-68
2023/05/18 10:50:48;;;;;;;4.93;1.90;;;15.10;49.10;;;;;;5071084;28;20028;-68
2023/05/18 10:53:19;;;;;;;4.45;2.03;;;15.30;49.20;;;;;;5069719;28;20055;-67
2023/05/18 10:55:49;;;;;;;10.27;2.80;;;15.50;49.30;;;;;;5081596;28;20064;-67
2023/05/18 10:58:18;;;;;;;4.32;2.00;;;15.30;48.10;;;;;;5079102;28;20048;-68
2023/05/18 11:00:51;;;;;;;5.13;2.10;;;15.20;48.60;;;;;;5083283;28;20402;-67
2023/05/18 11:03:18;;;;;;;5.43;2.47;;;15.20;48.70;;;;;;5072320;28;20399;-68
2023/05/18 11:06:11;;;;;;;6.55;2.40;;;15.20;48.70;;;;;;5072998;28;20038;-67
2023/05/18 11:08:47;;;;;;;6.75;2.58;;;15.30;48.80;;;;;;5071862;28;20032;-66
2023/05/18 11:11:13;;;;;;;8.43;3.22;;;15.30;48.60;;;;;;5083166;28;20027;-66
2023/05/18 11:13:44;;;;;;;4.75;2.22;;;15.30;48.60;;;;;;5078400;28;20025;-67
2023/05/18 11:16:10;;;;;;;5.07;2.08;;;15.40;48.80;;;;;;5088161;28;20035;-67
2023/05/18 11:18:39;;;;;;;6.47;2.40;;;15.50;48.60;;;;;;5086220;28;20028;-67
2023/05/18 11:21:23;;;;;;;4.60;2.22;;;15.30;48.30;;;;;;5076361;28;20375;-68
2023/05/18 11:24:15;;;;;;;6.07;2.30;;;15.20;48.50;;;;;;5077162;28;20024;-69
2023/05/18 11:26:41;;;;;;;6.63;2.60;;;15.20;48.70;;;;;;5069632;28;20027;-69
2023/05/18 11:29:29;;;;;;;5.70;2.47;;;15.10;48.50;;;;;;5071566;28;20028;-67
2023/05/18 11:31:54;;;;;;;6.75;2.90;;;15.30;48.70;;;;;;5075927;28;20021;-69
2023/05/18 11:34:46;;;;;;;4.63;2.38;;;15.10;47.30;;;;;;5077159;28;20097;-67
2023/05/18 11:37:13;;;;;;;5.78;2.70;;;14.90;47.80;;;;;;5082845;28;20694;-67
2023/05/18 11:39:40;;;;;;;4.35;2.22;;;15.10;48.40;;;;;;5073011;28;20061;-67
2023/05/18 11:42:05;;;;;;;5.75;2.20;;;15.30;48.40;;;;;;5081637;28;20512;-67
2023/05/18 11:44:32;;;;;;;6.65;2.70;;;15.70;47.90;;;;;;5069887;28;20021;-69
2023/05/18 11:46:57;;;;;;;4.55;2.10;;;16.10;47.30;;;;;;5067572;28;20128;-68
2023/05/18 11:49:26;;;;;;;5.03;2.40;;;16.30;46.70;;;;;;5080701;28;20054;-69
2023/05/18 11:52:03;;;;;;;6.97;2.53;;;16.70;46.30;;;;;;5081260;28;20074;-67
2023/05/18 11:54:47;;;;;;;4.82;2.10;;;16.40;45.20;;;;;;5081976;28;20032;-67
2023/05/18 11:57:15;;;;;;;5.85;2.30;;;16.50;45.80;;;;;;5066883;28;20029;-68
2023/05/18 11:59:45;;;;;;;6.90;2.25;;;16.50;45.50;;;;;;5076407;28;20483;-66
2023/05/18 12:02:16;;;;;;;4.25;2.15;;;16.50;45.80;;;;;;5083963;28;20414;-67
2023/05/18 12:04:45;;;;;;;4.85;2.10;;;16.80;46.00;;;;;;5084341;28;20513;-66
2023/05/18 12:07:11;;;;;;;5.72;2.17;;;17.10;46.00;;;;;;5073348;28;20032;-66
2023/05/18 12:09:41;;;;;;;6.00;2.53;;;17.20;45.30;;;;;;5072561;28;20714;-66
2023/05/18 12:12:07;;;;;;;5.18;2.47;;;17.20;45.40;;;;;;5077726;28;20047;-68
2023/05/18 12:14:34;;;;;;;4.63;2.13;;;17.20;45.10;;;;;;5082336;28;20416;-67
2023/05/18 12:17:00;;;;;;;5.57;2.30;;;17.40;45.20;;;;;;5073982;28;20117;-66
2023/05/18 12:19:26;;;;;;;6.95;2.50;;;17.60;44.40;;;;;;5077854;28;20107;-67
2023/05/18 12:21:52;;;;;;;6.07;2.28;;;17.50;43.70;;;;;;5075513;28;20099;-67
2023/05/18 12:24:19;;;;;;;5.97;2.70;;;17.50;43.70;;;;;;5076896;28;20027;-67
2023/05/18 12:26:45;;;;;;;5.57;2.35;;;17.60;43.90;;;;;;5077088;28;20517;-67
2023/05/18 12:29:18;;;;;;;4.82;2.35;;;17.70;43.80;;;;;;5084826;28;20028;-68
2023/05/18 12:31:44;;;;;;;5.03;2.72;;;17.60;43.90;;;;;;5077109;28;20104;-67
2023/05/18 12:34:10;;;;;;;5.20;2.50;;;17.60;44.00;;;;;;5068790;28;20467;-67
2023/05/18 12:36:42;;;;;;;4.68;2.40;;;17.50;43.80;;;;;;5073299;28;20079;-67
2023/05/18 12:39:07;;;;;;;7.85;2.67;;;17.50;43.50;;;;;;5073021;28;20174;-68
2023/05/18 12:41:33;;;;;;;6.22;2.65;;;17.10;43.50;;;;;;5070910;28;20570;-67
2023/05/18 12:43:59;;;;;;;5.80;2.45;;;16.90;44.40;;;;;;5073599;28;20112;-67
2023/05/18 12:46:24;;;;;;;5.50;2.80;;;16.90;44.90;;;;;;5072322;28;20028;-67
2023/05/18 12:49:00;;;;;;;5.28;2.78;;;16.90;44.40;;;;;;5075143;28;20103;-67
2023/05/18 12:51:34;;;;;;;6.05;2.30;;;16.60;44.90;;;;;;5075434;28;20023;-66
2023/05/18 12:54:02;;;;;;;7.35;3.10;;;16.40;45.40;;;;;;5071891;28;20069;-67